createdAt,value
2019-03-26T00:02:23.147Z,3.05
2019-03-26T00:04:51.682Z,4.42
2019-03-26T00:07:20.397Z,2.75
2019-03-26T00:09:49.145Z,2.62
2019-03-26T00:12:17.854Z,3.45
2019-03-26T00:14:47.910Z,1.87
2019-03-26T00:17:16.785Z,2.58
2019-03-26T00:19:45.296Z,2.35
2019-03-26T00:22:16.363Z,2.42
2019-03-26T00:24:46.444Z,2.83
2019-03-26T00:27:15.087Z,3.17
2019-03-26T00:29:46.265Z,2.72
2019-03-26T00:32:15.028Z,2.60
2019-03-26T00:34:43.821Z,2.25
2019-03-26T00:37:12.649Z,2.10
2019-03-26T00:39:42.607Z,3.50
2019-03-26T00:42:11.429Z,2.83
2019-03-26T00:44:40.285Z,2.77
2019-03-26T00:47:10.627Z,2.58
2019-03-26T00:49:40.247Z,2.52
2019-03-26T00:52:08.693Z,2.80
2019-03-26T00:54:37.589Z,2.42
2019-03-26T00:57:06.189Z,2.60
2019-03-26T00:59:34.963Z,2.47
2019-03-26T01:02:03.725Z,3.33
2019-03-26T01:04:33.387Z,2.92
2019-03-26T01:07:02.351Z,2.90
2019-03-26T01:09:30.895Z,2.90
2019-03-26T01:12:01.653Z,3.33
2019-03-26T01:14:31.643Z,2.50
2019-03-26T01:17:01.662Z,3.27
2019-03-26T01:19:30.404Z,2.90
2019-03-26T01:22:00.825Z,2.35
2019-03-26T01:24:30.716Z,3.42
2019-03-26T01:26:59.510Z,2.77
2019-03-26T01:29:28.050Z,2.85
2019-03-26T01:31:57.914Z,2.60
2019-03-26T01:34:26.421Z,2.77
2019-03-26T01:36:55.201Z,2.83
2019-03-26T01:39:24.091Z,2.10
2019-03-26T01:41:52.823Z,3.25
2019-03-26T01:44:23.093Z,2.15
2019-03-26T01:46:52.573Z,2.40
2019-03-26T01:49:21.029Z,2.35
2019-03-26T01:51:49.759Z,2.72
2019-03-26T01:54:20.086Z,3.55
2019-03-26T01:56:48.827Z,2.70
2019-03-26T01:59:17.305Z,1.95
2019-03-26T02:01:47.403Z,2.42
2019-03-26T02:04:16.257Z,2.75
2019-03-26T02:06:45.146Z,2.35
2019-03-26T02:09:13.928Z,2.98
2019-03-26T02:11:42.457Z,2.55
2019-03-26T02:14:11.236Z,2.35
2019-03-26T02:16:40.038Z,2.92
2019-03-26T02:19:08.478Z,2.50
2019-03-26T02:21:36.962Z,2.62
2019-03-26T02:24:05.801Z,3.20
2019-03-26T02:26:34.574Z,3.40
2019-03-26T02:29:03.393Z,2.58
2019-03-26T02:31:31.924Z,1.92
2019-03-26T02:34:00.620Z,2.87
2019-03-26T02:36:29.519Z,2.62
2019-03-26T02:38:57.960Z,3.00
2019-03-26T02:41:26.406Z,2.85
2019-03-26T02:43:58.268Z,2.52
2019-03-26T02:46:26.760Z,3.08
2019-03-26T02:48:57.287Z,3.27
2019-03-26T02:51:26.153Z,2.90
2019-03-26T02:53:54.681Z,3.02
2019-03-26T02:56:23.129Z,2.77
2019-03-26T02:58:51.936Z,2.95
2019-03-26T03:01:20.772Z,3.10
2019-03-26T03:03:49.517Z,2.40
2019-03-26T03:06:19.659Z,3.00
2019-03-26T03:08:48.112Z,3.72
2019-03-26T03:11:18.217Z,2.75
2019-03-26T03:13:48.568Z,2.67
2019-03-26T03:16:17.019Z,2.58
2019-03-26T03:18:47.860Z,2.85
2019-03-26T03:21:18.837Z,3.60
2019-03-26T03:23:47.543Z,3.00
2019-03-26T03:26:16.066Z,1.98
2019-03-26T03:28:44.525Z,2.77
2019-03-26T03:31:14.746Z,2.62
2019-03-26T03:33:43.299Z,2.37
2019-03-26T03:36:11.758Z,2.67
2019-03-26T03:38:41.639Z,2.17
2019-03-26T03:41:10.514Z,2.45
2019-03-26T03:43:38.956Z,2.37
2019-03-26T03:46:07.882Z,2.92
2019-03-26T03:48:36.997Z,2.58
2019-03-26T03:51:08.813Z,2.50
2019-03-26T03:53:37.688Z,2.58
2019-03-26T03:56:08.129Z,3.45
2019-03-26T03:58:38.933Z,2.33
2019-03-26T04:01:07.753Z,2.65
2019-03-26T04:03:36.249Z,2.37
2019-03-26T04:06:09.519Z,2.50
2019-03-26T04:08:35.453Z,2.30
2019-03-26T04:11:04.473Z,2.25
2019-03-26T04:13:32.991Z,2.47
2019-03-26T04:16:01.433Z,2.47
2019-03-26T04:18:29.989Z,1.60
2019-03-26T04:20:58.446Z,2.10
2019-03-26T04:23:26.893Z,1.70
2019-03-26T04:25:55.366Z,2.25
2019-03-26T04:28:23.808Z,2.30
2019-03-26T04:30:52.606Z,2.08
2019-03-26T04:33:22.727Z,1.90
2019-03-26T04:35:51.422Z,2.25
2019-03-26T04:38:20.185Z,1.82
2019-03-26T04:40:51.716Z,2.42
2019-03-26T04:43:20.421Z,3.22
2019-03-26T04:45:48.956Z,2.75
2019-03-26T04:48:20.501Z,2.83
2019-03-26T04:50:49.326Z,1.35
2019-03-26T04:53:18.116Z,2.10
2019-03-26T04:55:46.849Z,2.33
2019-03-26T04:58:15.554Z,2.65
2019-03-26T05:00:45.215Z,2.75
2019-03-26T05:03:14.193Z,2.52
2019-03-26T05:05:44.049Z,2.00
2019-03-26T05:08:12.835Z,1.80
2019-03-26T05:10:41.725Z,2.33
2019-03-26T05:13:10.294Z,1.72
2019-03-26T05:15:39.246Z,2.35
2019-03-26T05:18:08.061Z,2.52
2019-03-26T05:20:36.497Z,3.30
2019-03-26T05:23:05.001Z,2.80
2019-03-26T05:25:33.470Z,2.45
2019-03-26T05:28:02.288Z,1.77
2019-03-26T05:30:33.149Z,2.22
2019-03-26T05:33:01.417Z,2.33
2019-03-26T05:35:29.957Z,2.10
2019-03-26T05:37:58.747Z,2.37
2019-03-26T05:40:28.581Z,2.42
2019-03-26T05:42:57.016Z,2.85
2019-03-26T05:45:25.741Z,2.85
2019-03-26T05:47:57.971Z,2.70
2019-03-26T05:50:26.673Z,2.47
2019-03-26T05:52:55.175Z,2.70
2019-03-26T05:55:26.555Z,2.80
2019-03-26T05:57:57.989Z,2.85
2019-03-26T06:00:26.426Z,3.17
2019-03-26T06:02:55.215Z,2.65
2019-03-26T06:05:23.937Z,3.98
2019-03-26T06:07:52.678Z,3.05
2019-03-26T06:10:21.505Z,3.52
2019-03-26T06:12:50.396Z,3.37
2019-03-26T06:15:20.059Z,3.15
2019-03-26T06:17:48.577Z,3.55
2019-03-26T06:20:17.766Z,2.87
2019-03-26T06:22:46.471Z,3.22
2019-03-26T06:25:15.658Z,3.25
2019-03-26T06:27:44.405Z,2.95
2019-03-26T06:30:13.226Z,2.95
2019-03-26T06:32:41.985Z,2.83
2019-03-26T06:35:12.517Z,3.37
2019-03-26T06:37:41.340Z,3.75
2019-03-26T06:40:12.805Z,3.87
2019-03-26T06:42:41.528Z,2.90
2019-03-26T06:45:11.341Z,3.85
2019-03-26T06:47:39.862Z,3.05
2019-03-26T06:50:10.108Z,3.45
2019-03-26T06:52:39.379Z,3.50
2019-03-26T06:55:08.379Z,3.75
2019-03-26T06:57:37.615Z,4.05
2019-03-26T07:00:08.417Z,3.90
2019-03-26T07:02:37.511Z,3.33
2019-03-26T07:05:06.883Z,4.08
2019-03-26T07:07:36.077Z,3.95
2019-03-26T07:10:07.419Z,3.60
2019-03-26T07:12:36.202Z,4.17
2019-03-26T07:15:07.462Z,5.03
2019-03-26T07:17:36.133Z,4.10
2019-03-26T07:20:08.615Z,4.58
2019-03-26T07:22:37.056Z,4.42
2019-03-26T07:25:07.973Z,4.00
2019-03-26T07:27:37.027Z,4.70
2019-03-26T07:30:07.985Z,4.62
2019-03-26T07:32:36.440Z,3.20
2019-03-26T07:35:07.072Z,4.47
2019-03-26T07:37:45.272Z,4.50
2019-03-26T07:40:07.744Z,2.70
2019-03-26T07:42:36.288Z,4.70
2019-03-26T07:45:10.336Z,5.10
2019-03-26T07:47:38.782Z,4.62
2019-03-26T07:50:08.342Z,3.35
2019-03-26T07:52:37.133Z,2.72
2019-03-26T07:55:07.548Z,2.83
2019-03-26T07:57:36.341Z,2.85
2019-03-26T08:00:07.764Z,4.67
2019-03-26T08:02:36.525Z,4.67
2019-03-26T08:05:09.409Z,3.12
2019-03-26T08:07:37.942Z,3.58
2019-03-26T08:10:10.796Z,3.25
2019-03-26T08:12:41.255Z,3.95
2019-03-26T08:15:09.940Z,3.10
2019-03-26T08:17:38.788Z,2.75
2019-03-26T08:20:08.534Z,3.08
2019-03-26T08:22:37.340Z,2.98
2019-03-26T08:25:09.025Z,2.00
2019-03-26T08:27:37.734Z,3.27
2019-03-26T08:30:08.204Z,2.95
2019-03-26T08:32:37.189Z,2.75
2019-03-26T08:35:06.779Z,3.05
2019-03-26T08:37:35.225Z,2.42
2019-03-26T08:40:07.959Z,2.87
2019-03-26T08:42:36.504Z,3.75
2019-03-26T08:45:08.567Z,2.92
2019-03-26T08:47:37.370Z,2.42
2019-03-26T08:50:10.520Z,2.85
2019-03-26T08:52:39.070Z,2.00
2019-03-26T08:55:11.127Z,2.33
2019-03-26T08:57:39.649Z,3.00
2019-03-26T09:00:10.652Z,2.33
2019-03-26T09:02:39.405Z,2.08
2019-03-26T09:05:08.395Z,2.58
2019-03-26T09:07:37.157Z,2.52
2019-03-26T09:10:09.903Z,2.75
2019-03-26T09:12:39.676Z,3.02
2019-03-26T09:15:14.204Z,2.25
2019-03-26T09:17:44.447Z,2.80
2019-03-26T09:20:12.460Z,2.65
2019-03-26T09:22:41.503Z,2.70
2019-03-26T09:25:12.074Z,2.12
2019-03-26T09:27:40.673Z,2.52
2019-03-26T09:30:12.263Z,2.40
2019-03-26T09:32:43.140Z,2.58
2019-03-26T09:35:14.043Z,2.22
2019-03-26T09:37:42.604Z,2.25
2019-03-26T09:40:12.362Z,2.17
2019-03-26T09:42:41.199Z,1.92
2019-03-26T09:45:11.859Z,1.72
2019-03-26T09:47:40.341Z,1.87
2019-03-26T09:50:11.181Z,2.67
2019-03-26T09:52:39.887Z,2.33
2019-03-26T09:55:10.435Z,2.52
2019-03-26T09:57:38.890Z,2.12
2019-03-26T10:00:12.948Z,2.47
2019-03-26T10:02:43.357Z,1.70
2019-03-26T10:05:12.991Z,2.17
2019-03-26T10:07:41.563Z,1.90
2019-03-26T10:10:10.794Z,1.85
2019-03-26T10:12:39.255Z,1.70
2019-03-26T10:15:08.741Z,2.37
2019-03-26T10:17:37.744Z,2.00
2019-03-26T10:20:07.262Z,2.15
2019-03-26T10:22:37.582Z,1.90
2019-03-26T10:25:10.976Z,1.45
2019-03-26T10:27:39.006Z,1.50
2019-03-26T10:30:12.770Z,1.85
2019-03-26T10:32:41.682Z,1.92
2019-03-26T10:35:10.875Z,1.70
2019-03-26T10:37:39.624Z,1.57
2019-03-26T10:40:10.228Z,1.80
2019-03-26T10:42:38.697Z,1.57
2019-03-26T10:45:07.944Z,1.80
2019-03-26T10:47:36.748Z,1.35
2019-03-26T10:50:06.356Z,2.20
2019-03-26T10:52:34.905Z,1.87
2019-03-26T10:55:06.238Z,1.50
2019-03-26T10:57:35.251Z,1.67
2019-03-26T11:00:06.212Z,1.90
2019-03-26T11:02:35.944Z,2.45
2019-03-26T11:05:06.278Z,2.33
2019-03-26T11:07:35.153Z,2.10
2019-03-26T11:10:05.372Z,2.27
2019-03-26T11:12:34.252Z,2.58
2019-03-26T11:15:04.579Z,2.50
2019-03-26T11:17:33.056Z,1.82
2019-03-26T11:20:01.861Z,1.82
2019-03-26T11:22:32.600Z,2.17
2019-03-26T11:25:01.396Z,2.42
2019-03-26T11:27:30.653Z,2.58
2019-03-26T11:29:59.442Z,2.37
2019-03-26T11:32:28.263Z,2.30
2019-03-26T11:34:56.797Z,2.17
2019-03-26T11:37:25.248Z,2.72
2019-03-26T11:39:54.006Z,2.00
2019-03-26T11:42:22.770Z,2.58
2019-03-26T11:44:51.222Z,2.92
2019-03-26T11:47:20.032Z,2.87
2019-03-26T11:49:48.496Z,2.50
2019-03-26T11:52:17.013Z,2.42
2019-03-26T11:54:45.735Z,3.00
2019-03-26T11:57:14.523Z,2.05
2019-03-26T11:59:43.298Z,2.60
2019-03-26T12:02:12.592Z,2.50
2019-03-26T12:04:44.499Z,2.33
2019-03-26T12:07:16.684Z,2.10
2019-03-26T12:09:46.862Z,2.30
2019-03-26T12:12:15.807Z,4.33
2019-03-26T12:14:44.998Z,2.47
2019-03-26T12:17:14.949Z,2.98
2019-03-26T12:19:44.086Z,2.95
2019-03-26T12:22:14.086Z,2.55
2019-03-26T12:24:42.826Z,3.65
2019-03-26T12:27:11.904Z,2.15
2019-03-26T12:29:40.616Z,2.70
2019-03-26T12:32:09.366Z,2.90
2019-03-26T12:34:37.830Z,3.42
2019-03-26T12:37:06.508Z,2.80
2019-03-26T12:39:35.957Z,2.80
2019-03-26T12:42:04.484Z,2.47
2019-03-26T12:44:33.244Z,3.00
2019-03-26T12:47:01.710Z,2.72
2019-03-26T12:49:30.566Z,3.12
2019-03-26T12:51:59.387Z,3.22
2019-03-26T12:54:27.919Z,2.80
2019-03-26T12:56:57.589Z,2.47
2019-03-26T12:59:26.731Z,3.90
2019-03-26T13:01:55.645Z,3.65
2019-03-26T13:04:25.635Z,2.90
2019-03-26T13:06:54.161Z,2.98
2019-03-26T13:09:22.675Z,2.92
2019-03-26T13:11:51.722Z,2.42
2019-03-26T13:14:20.342Z,2.37
2019-03-26T13:16:49.099Z,3.22
2019-03-26T13:19:17.593Z,2.60
2019-03-26T13:21:46.306Z,3.17
2019-03-26T13:24:15.242Z,2.52
2019-03-26T13:26:43.709Z,3.00
2019-03-26T13:29:12.161Z,2.35
2019-03-26T13:31:40.919Z,2.70
2019-03-26T13:34:09.891Z,1.92
2019-03-26T13:36:40.329Z,2.25
2019-03-26T13:39:09.179Z,2.55
2019-03-26T13:41:37.984Z,2.33
2019-03-26T13:44:06.842Z,2.50
2019-03-26T13:46:35.337Z,2.47
2019-03-26T13:49:04.293Z,2.33
2019-03-26T13:51:37.135Z,1.92
2019-03-26T13:54:05.616Z,2.35
2019-03-26T13:56:34.159Z,2.35
2019-03-26T13:59:02.643Z,2.30
2019-03-26T14:01:34.992Z,2.12
2019-03-26T14:04:03.545Z,2.25
2019-03-26T14:06:33.738Z,2.70
2019-03-26T14:09:04.766Z,2.62
2019-03-26T14:11:33.554Z,3.08
2019-03-26T14:14:02.653Z,1.80
2019-03-26T14:16:36.261Z,2.27
2019-03-26T14:19:04.802Z,2.12
2019-03-26T14:21:33.713Z,2.08
2019-03-26T14:24:02.476Z,4.30
2019-03-26T14:26:31.935Z,5.90
2019-03-26T14:29:01.865Z,2.70
2019-03-26T14:31:30.677Z,3.87
2019-03-26T14:33:59.199Z,2.62
2019-03-26T14:36:27.683Z,4.15
2019-03-26T14:38:57.558Z,2.17
2019-03-26T14:41:27.929Z,2.70
2019-03-26T14:43:56.832Z,2.50
2019-03-26T14:46:25.360Z,2.37
2019-03-26T14:48:53.895Z,2.55
2019-03-26T14:51:23.225Z,1.90
2019-03-26T14:53:52.166Z,2.10
2019-03-26T14:56:20.651Z,1.98
2019-03-26T14:58:49.151Z,2.10
2019-03-26T15:01:17.674Z,1.57
2019-03-26T15:03:46.205Z,2.02
2019-03-26T15:06:14.939Z,1.80
2019-03-26T15:08:43.399Z,2.15
2019-03-26T15:11:12.718Z,1.77
2019-03-26T15:13:41.198Z,2.92
2019-03-26T15:16:09.711Z,2.65
2019-03-26T15:18:38.247Z,2.45
2019-03-26T15:21:06.871Z,2.35
2019-03-26T15:23:35.752Z,2.55
2019-03-26T15:26:04.224Z,1.72
2019-03-26T15:28:32.761Z,2.60
2019-03-26T15:31:01.227Z,1.95
2019-03-26T15:33:29.683Z,2.17
2019-03-26T15:35:58.182Z,2.22
2019-03-26T15:38:26.638Z,2.95
2019-03-26T15:40:56.957Z,2.52
2019-03-26T15:43:25.766Z,2.20
2019-03-26T15:45:54.555Z,1.82
2019-03-26T15:48:23.069Z,1.80
2019-03-26T15:50:51.551Z,3.05
2019-03-26T15:53:19.998Z,2.35
2019-03-26T15:55:48.550Z,2.00
2019-03-26T15:58:17.233Z,2.22
2019-03-26T16:00:45.952Z,2.70
2019-03-26T16:03:14.406Z,3.17
2019-03-26T16:05:44.586Z,2.83
2019-03-26T16:08:13.106Z,4.17
2019-03-26T16:10:41.616Z,2.80
2019-03-26T16:13:10.174Z,2.85
2019-03-26T16:15:44.590Z,2.85
2019-03-26T16:18:09.276Z,2.60
2019-03-26T16:20:37.765Z,3.22
2019-03-26T16:23:06.288Z,3.52
2019-03-26T16:25:36.128Z,3.40
2019-03-26T16:28:04.686Z,2.75
2019-03-26T16:30:35.492Z,2.72
2019-03-26T16:33:04.258Z,3.98
2019-03-26T16:35:32.746Z,4.67
2019-03-26T16:38:02.246Z,5.03
2019-03-26T16:40:32.322Z,5.30
2019-03-26T16:43:03.301Z,5.22
2019-03-26T16:45:31.999Z,6.40
2019-03-26T16:48:00.528Z,4.22
2019-03-26T16:50:29.464Z,5.35
2019-03-26T16:52:58.940Z,4.25
2019-03-26T16:55:27.425Z,3.87
2019-03-26T16:57:58.058Z,4.00
2019-03-26T17:00:33.720Z,4.70
2019-03-26T17:03:02.791Z,5.22
2019-03-26T17:05:33.026Z,5.12
2019-03-26T17:08:01.520Z,4.45
2019-03-26T17:10:30.077Z,4.80
2019-03-26T17:12:59.012Z,4.83
2019-03-26T17:15:30.450Z,4.85
2019-03-26T17:18:00.236Z,4.95
2019-03-26T17:20:28.781Z,5.33
2019-03-26T17:22:57.589Z,5.87
2019-03-26T17:25:26.165Z,6.47
2019-03-26T17:27:54.992Z,5.85
2019-03-26T17:30:23.816Z,5.47
2019-03-26T17:32:52.297Z,5.60
2019-03-26T17:35:23.099Z,6.17
2019-03-26T17:37:59.462Z,6.80
2019-03-26T17:40:24.280Z,6.72
2019-03-26T17:42:53.067Z,6.40
2019-03-26T17:45:21.538Z,5.92
2019-03-26T17:47:50.020Z,6.83
2019-03-26T17:50:18.572Z,6.15
2019-03-26T17:52:47.096Z,6.05
2019-03-26T17:55:16.690Z,5.90
2019-03-26T17:57:46.574Z,6.62
2019-03-26T18:00:19.243Z,4.97
2019-03-26T18:02:47.705Z,6.08
2019-03-26T18:05:25.027Z,7.37
2019-03-26T18:07:54.811Z,5.72
2019-03-26T18:10:23.264Z,4.40
2019-03-26T18:12:52.075Z,4.33
2019-03-26T18:15:20.900Z,4.30
2019-03-26T18:17:49.431Z,3.98
2019-03-26T18:20:31.559Z,4.67
2019-03-26T18:22:48.756Z,4.78
2019-03-26T18:25:18.955Z,4.15
2019-03-26T18:27:47.962Z,4.67
2019-03-26T18:30:16.818Z,5.55
2019-03-26T18:32:45.525Z,4.53
2019-03-26T18:35:14.164Z,5.10
2019-03-26T18:37:44.669Z,4.50
2019-03-26T18:40:13.635Z,3.62
2019-03-26T18:42:44.401Z,5.05
2019-03-26T18:45:13.231Z,3.80
2019-03-26T18:47:41.697Z,4.90
2019-03-26T18:50:10.975Z,5.10
2019-03-26T18:52:39.743Z,4.45
2019-03-26T18:55:09.122Z,3.30
2019-03-26T18:57:37.642Z,4.60
2019-03-26T19:00:11.855Z,4.55
2019-03-26T19:02:40.368Z,4.55
2019-03-26T19:05:09.659Z,5.00
2019-03-26T19:07:38.544Z,4.60
2019-03-26T19:10:10.141Z,5.72
2019-03-26T19:12:38.595Z,3.77
2019-03-26T19:15:07.767Z,4.17
2019-03-26T19:17:36.237Z,4.05
2019-03-26T19:20:06.865Z,4.05
2019-03-26T19:22:36.854Z,3.72
2019-03-26T19:25:06.798Z,4.80
2019-03-26T19:27:35.264Z,4.08
2019-03-26T19:30:05.003Z,4.55
2019-03-26T19:32:35.136Z,5.25
2019-03-26T19:35:05.013Z,4.50
2019-03-26T19:37:33.464Z,3.85
2019-03-26T19:40:02.004Z,4.95
2019-03-26T19:42:30.545Z,5.25
2019-03-26T19:44:59.239Z,5.28
2019-03-26T19:47:30.266Z,5.50
2019-03-26T19:49:59.183Z,6.55
2019-03-26T19:52:29.677Z,5.70
2019-03-26T19:55:00.737Z,5.22
2019-03-26T19:57:28.606Z,6.58
2019-03-26T19:59:58.681Z,6.25
2019-03-26T20:02:27.161Z,6.25
2019-03-26T20:04:55.668Z,7.58
2019-03-26T20:07:24.179Z,8.08
2019-03-26T20:09:52.713Z,14.78
2019-03-26T20:12:21.484Z,7.72
2019-03-26T20:14:50.057Z,8.25
2019-03-26T20:17:20.061Z,9.88
2019-03-26T20:22:23.862Z,8.88
2019-03-26T20:24:52.726Z,9.65
2019-03-26T20:27:21.621Z,10.28
2019-03-26T20:29:50.411Z,10.82
2019-03-26T20:32:21.640Z,10.45
2019-03-26T20:34:53.726Z,10.30
2019-03-26T20:37:22.221Z,11.63
2019-03-26T20:39:52.006Z,11.38
2019-03-26T20:42:20.488Z,9.93
2019-03-26T20:44:50.130Z,10.88
2019-03-26T20:47:18.656Z,11.28
2019-03-26T20:49:47.129Z,9.75
2019-03-26T20:52:17.553Z,11.10
2019-03-26T20:54:47.702Z,10.48
2019-03-26T20:57:16.134Z,11.83
2019-03-26T20:59:47.158Z,10.23
2019-03-26T21:02:15.678Z,9.70
2019-03-26T21:04:44.341Z,11.22
2019-03-26T21:07:13.925Z,9.73
2019-03-26T21:09:42.459Z,10.50
2019-03-26T21:12:14.938Z,10.93
2019-03-26T21:14:43.393Z,10.65
2019-03-26T21:17:11.846Z,10.23
2019-03-26T21:19:45.493Z,9.95
2019-03-26T21:22:15.026Z,12.63
2019-03-26T21:24:45.416Z,10.43
2019-03-26T21:27:14.210Z,9.88
2019-03-26T21:29:43.027Z,10.48
2019-03-26T21:32:11.579Z,12.03
2019-03-26T21:34:40.182Z,11.38
2019-03-26T21:37:10.260Z,11.10
2019-03-26T21:39:39.072Z,11.15
2019-03-26T21:42:07.856Z,12.43
2019-03-26T21:44:36.647Z,11.00
2019-03-26T21:47:05.425Z,11.83
2019-03-26T21:49:36.635Z,10.32
2019-03-26T21:52:05.501Z,9.73
2019-03-26T21:54:34.599Z,10.32
2019-03-26T21:57:04.777Z,11.57
2019-03-26T21:59:33.566Z,11.90
2019-03-26T22:02:02.694Z,9.80
2019-03-26T22:04:31.206Z,10.32
2019-03-26T22:07:02.457Z,11.80
2019-03-26T22:09:33.480Z,10.15
2019-03-26T22:12:02.347Z,11.48
2019-03-26T22:14:36.656Z,9.93
2019-03-26T22:17:09.882Z,9.45
2019-03-26T22:19:45.788Z,10.53
2019-03-26T22:22:15.627Z,11.43
2019-03-26T22:24:44.144Z,11.43
2019-03-26T22:27:26.110Z,10.88
2019-03-26T22:29:56.879Z,10.38
2019-03-26T22:32:25.581Z,11.15
2019-03-26T22:34:56.353Z,10.38
2019-03-26T22:37:30.033Z,10.98
2019-03-26T22:39:59.256Z,12.03
2019-03-26T22:42:29.838Z,10.72
2019-03-26T22:44:58.738Z,10.10
2019-03-26T22:47:27.475Z,10.45
2019-03-26T22:49:57.391Z,11.50
2019-03-26T22:52:26.431Z,10.60
2019-03-26T22:54:54.871Z,10.90
2019-03-26T22:57:23.361Z,11.75
2019-03-26T22:59:51.853Z,11.75
2019-03-26T23:02:20.749Z,12.18
2019-03-26T23:04:49.216Z,11.85
2019-03-26T23:07:18.039Z,12.70
2019-03-26T23:09:46.598Z,11.20
2019-03-26T23:12:15.428Z,11.80
2019-03-26T23:14:45.285Z,12.90
2019-03-26T23:17:14.415Z,12.68
2019-03-26T23:19:43.127Z,12.40
2019-03-26T23:22:11.865Z,10.95
2019-03-26T23:24:40.531Z,13.38
2019-03-26T23:27:08.985Z,13.58
2019-03-26T23:29:37.815Z,11.15
2019-03-26T23:32:06.547Z,13.45
2019-03-26T23:34:38.393Z,14.13
2019-03-26T23:37:06.889Z,13.75
2019-03-26T23:39:36.875Z,13.88
2019-03-26T23:42:05.338Z,12.40
2019-03-26T23:44:34.107Z,13.05
2019-03-26T23:47:02.557Z,12.55
2019-03-26T23:49:31.017Z,12.63
2019-03-26T23:51:59.895Z,15.15
2019-03-26T23:54:28.342Z,13.68
2019-03-26T23:56:57.823Z,13.15
2019-03-26T23:59:27.225Z,13.40
